Time;durP1;ratioP1;P1;durP2;ratioP2;P2;SDS_P1;SDS_P2;PMS_P1;PMS_P2;Temp;Humidity;BMP_temperature;BMP_pressure;BME280_temperature;BME280_humidity;BME280_pressure;Samples;Min_cycle;Max_cycle;Signal;HPM_P1;HPM_P2
2022/03/12 00:02:05;;;;;;;13.43;7.55;;;;;;;-9.54;76.57;101127.42;1788130;80;21486;-76
2022/03/12 00:05:12;;;;;;;20.82;8.65;;;;;;;-9.54;76.45;101127.42;1788100;80;21195;-82
2022/03/12 00:08:12;;;;;;;13.78;7.25;;;;;;;-9.57;76.34;101126.14;1788196;80;21188;-76
2022/03/12 00:11:28;;;;;;;14.78;6.22;;;;;;;-9.59;76.15;101131.94;1787091;80;21148;-82
2022/03/12 00:14:36;;;;;;;15.43;6.78;;;;;;;-9.62;75.92;101128.02;1788097;80;21144;-76
2022/03/12 00:17:42;;;;;;;12.35;7.53;;;;;;;-9.63;75.77;101129.38;1785749;79;21199;-76
2022/03/12 00:20:47;;;;;;;15.43;7.95;;;;;;;-9.65;75.71;101129.38;1785608;80;21148;-79
2022/03/12 00:23:53;;;;;;;21.65;9.05;;;;;;;-9.68;75.40;101121.52;1785491;80;21212;-76
2022/03/12 00:27:00;;;;;;;13.53;7.87;;;;;;;-9.71;75.46;101125.53;1785448;80;21180;-82
2022/03/12 00:30:05;;;;;;;17.23;8.48;;;;;;;-9.72;75.27;101120.28;1785503;80;21152;-82
2022/03/12 00:33:12;;;;;;;12.50;7.10;;;;;;;-9.75;75.27;101119.88;1784118;80;21160;-81
2022/03/12 00:36:19;;;;;;;13.78;7.35;;;;;;;-9.79;75.20;101126.13;1785531;80;21748;-76
2022/03/12 00:39:25;;;;;;;12.05;7.10;;;;;;;-9.80;75.25;101113.34;1785477;80;21132;-82
2022/03/12 00:42:32;;;;;;;19.62;8.35;;;;;;;-9.81;75.15;101122.19;1784285;80;21736;-75
2022/03/12 00:45:38;;;;;;;17.02;8.03;;;;;;;-9.85;75.11;101122.27;1785461;80;21159;-75
2022/03/12 00:48:45;;;;;;;14.78;7.65;;;;;;;-9.87;75.18;101120.12;1785373;80;21163;-75
2022/03/12 00:51:52;;;;;;;15.10;7.22;;;;;;;-9.87;75.21;101128.06;1785067;80;21219;-77
2022/03/12 00:54:58;;;;;;;14.05;7.03;;;;;;;-9.90;75.10;101126.78;1784378;80;21168;-74
2022/03/12 00:58:04;;;;;;;12.05;6.62;;;;;;;-9.94;74.89;101132.57;1784200;80;21188;-80
2022/03/12 01:01:10;;;;;;;12.68;6.62;;;;;;;-9.97;74.73;101130.42;1783945;80;21164;-75
2022/03/12 01:04:17;;;;;;;13.58;6.80;;;;;;;-9.97;74.54;101131.74;1784989;80;21218;-75
2022/03/12 01:07:24;;;;;;;11.08;6.47;;;;;;;-10.00;74.32;101128.72;1784743;80;21226;-75
2022/03/12 01:10:30;;;;;;;12.30;6.35;;;;;;;-10.02;74.16;101130.50;1785532;80;21681;-78
2022/03/12 01:13:38;;;;;;;12.95;6.47;;;;;;;-10.00;74.01;101135.80;1784106;80;21171;-75
2022/03/12 01:16:45;;;;;;;16.30;7.47;;;;;;;-10.02;73.75;101130.95;1785186;80;21238;-81
2022/03/12 01:19:52;;;;;;;12.68;6.78;;;;;;;-10.06;73.79;101138.97;1799756;79;21752;-81
2022/03/12 01:22:57;;;;;;;15.45;6.65;;;;;;;-10.08;73.93;101132.81;1800116;79;21199;-75
2022/03/12 01:26:04;;;;;;;9.70;5.87;;;;;;;-10.10;74.13;101135.08;1799663;79;21188;-81
2022/03/12 01:29:10;;;;;;;12.10;6.78;;;;;;;-10.14;73.99;101135.57;1799732;79;21673;-75
2022/03/12 01:32:19;;;;;;;15.90;6.37;;;;;;;-10.18;73.68;101140.48;1800475;79;21224;-81
2022/03/12 01:35:26;;;;;;;17.42;6.42;;;;;;;-10.22;73.37;101140.11;1800318;79;21756;-75
2022/03/12 01:38:47;;;;;;;12.18;6.75;;;;;;;-10.30;73.08;101132.80;1801180;79;21136;-76
2022/03/12 01:41:52;;;;;;;12.95;5.55;;;;;;;-10.35;72.98;101128.01;1800749;79;21175;-76
2022/03/12 01:44:59;;;;;;;11.57;6.20;;;;;;;-10.38;72.90;101138.66;1799821;79;21191;-80
2022/03/12 01:48:07;;;;;;;7.20;5.20;;;;;;;-10.41;72.83;101134.73;1801310;79;21239;-80
2022/03/12 01:51:13;;;;;;;9.08;5.37;;;;;;;-10.44;72.68;101134.34;1801199;79;21199;-75
2022/03/12 01:54:13;;;;;;;9.58;5.90;;;;;;;-10.46;72.62;101128.19;1799786;79;21195;-75
2022/03/12 01:57:18;;;;;;;13.48;5.80;;;;;;;-10.47;72.66;101129.55;1800395;79;21195;-81
2022/03/12 02:00:54;;;;;;;14.80;6.45;;;;;;;-10.47;72.63;101129.55;1799627;79;21191;-80
2022/03/12 02:04:04;;;;;;;8.28;5.20;;;;;;;-10.46;72.60;101137.89;1791038;80;21204;-76
2022/03/12 02:07:12;;;;;;;14.33;5.83;;;;;;;-10.47;72.52;101135.70;1789711;80;21760;-78
2022/03/12 02:10:20;;;;;;;9.93;5.60;;;;;;;-10.51;72.40;101141.94;1789710;80;21179;-81
2022/03/12 02:13:26;;;;;;;15.88;6.35;;;;;;;-10.53;72.16;101155.64;1789524;80;21203;-83
2022/03/12 02:16:31;;;;;;;18.37;5.37;;;;;;;-10.56;72.12;101152.58;1789791;80;21184;-77
2022/03/12 02:19:39;;;;;;;10.85;6.17;;;;;;;-10.56;71.90;101151.26;1791258;80;21148;-83
2022/03/12 02:22:45;;;;;;;18.02;6.97;;;;;;;-10.59;71.82;101155.26;1791159;80;21219;-76
2022/03/12 02:25:51;;;;;;;10.10;6.25;;;;;;;-10.63;71.83;101150.94;1791208;80;21188;-77
2022/03/12 02:28:57;;;;;;;15.00;6.55;;;;;;;-10.67;71.86;101151.87;1791224;80;21141;-81
2022/03/12 02:32:13;;;;;;;7.87;5.30;;;;;;;-10.68;71.86;101158.48;1791147;80;21152;-80
2022/03/12 02:35:19;;;;;;;11.28;5.62;;;;;;;-10.71;71.81;101147.53;1791180;80;21203;-81
2022/03/12 02:38:26;;;;;;;10.90;5.62;;;;;;;-10.74;71.80;101142.27;1791186;80;21781;-76
2022/03/12 02:41:31;;;;;;;9.25;5.17;;;;;;;-10.76;71.73;101148.05;1791120;80;21195;-76
2022/03/12 02:44:37;;;;;;;9.78;4.95;;;;;;;-10.78;71.69;101153.78;1772420;80;21132;-76
2022/03/12 02:47:38;;;;;;;8.80;4.95;;;;;;;-10.82;71.70;101150.75;1791147;80;21184;-75
2022/03/12 02:50:37;;;;;;;11.40;5.85;;;;;;;-10.86;71.83;101142.47;1791218;80;21195;-75
2022/03/12 02:53:44;;;;;;;13.53;5.35;;;;;;;-10.88;71.90;101147.75;1791202;80;21474;-81
2022/03/12 02:56:50;;;;;;;9.65;6.28;;;;;;;-10.89;71.97;101144.69;1790857;80;21194;-75
2022/03/12 02:59:55;;;;;;;13.28;6.97;;;;;;;-10.91;72.06;101141.66;1791197;80;21188;-76
2022/03/12 03:03:01;;;;;;;14.58;5.80;;;;;;;-10.89;72.11;101147.78;1792659;80;21801;-81
2022/03/12 03:06:07;;;;;;;13.10;6.50;;;;;;;-10.86;71.99;101147.30;1798428;80;21227;-77
2022/03/12 03:09:13;;;;;;;16.85;6.30;;;;;;;-10.85;71.83;101153.01;1798489;80;21184;-76
2022/03/12 03:12:13;;;;;;;13.68;6.60;;;;;;;-10.84;71.61;101152.55;1798420;80;21172;-76
2022/03/12 03:15:06;;;;;;;10.18;6.05;;;;;;;-10.85;71.36;101160.06;1798546;80;21136;-75
2022/03/12 03:18:12;;;;;;;11.83;5.67;;;;;;;-10.86;71.22;101158.33;1798414;80;21175;-75
2022/03/12 03:21:19;;;;;;;8.78;6.12;;;;;;;-10.88;71.08;101158.33;1798456;80;21214;-76
2022/03/12 03:24:24;;;;;;;11.53;6.20;;;;;;;-10.90;70.95;101157.48;1798478;80;21200;-81
2022/03/12 03:27:30;;;;;;;8.55;5.40;;;;;;;-10.90;70.68;101163.22;1797603;80;21200;-76
2022/03/12 03:30:40;;;;;;;11.95;6.42;;;;;;;-10.93;70.65;101163.25;1798516;80;21160;-75
2022/03/12 03:33:47;;;;;;;14.50;7.53;;;;;;;-10.92;70.63;101165.86;1798400;80;21215;-81
2022/03/12 03:36:52;;;;;;;13.65;6.90;;;;;;;-10.90;70.54;101165.86;1798113;80;21199;-81
2022/03/12 03:39:59;;;;;;;11.63;6.42;;;;;;;-10.91;70.47;101169.41;1798481;80;21196;-76
2022/03/12 03:43:04;;;;;;;12.30;6.58;;;;;;;-10.93;70.40;101177.78;1760464;81;21223;-75
2022/03/12 03:46:09;;;;;;;14.40;7.15;;;;;;;-10.94;70.42;101177.36;1760434;81;21176;-75
2022/03/12 03:49:15;;;;;;;13.93;7.30;;;;;;;-10.95;70.41;101177.81;1760249;81;21244;-75
2022/03/12 03:52:21;;;;;;;19.85;6.92;;;;;;;-10.94;70.42;101180.01;1759830;81;21200;-82
2022/03/12 03:55:28;;;;;;;11.70;6.83;;;;;;;-10.96;70.38;101181.77;1760377;81;21212;-81
2022/03/12 03:58:36;;;;;;;13.90;6.92;;;;;;;-10.98;70.34;101174.33;1744321;81;21193;-75
2022/03/12 04:01:45;;;;;;;11.30;6.25;;;;;;;-11.03;70.31;101181.45;1760123;81;21263;-77
2022/03/12 04:04:53;;;;;;;14.38;6.65;;;;;;;-11.11;70.38;101186.36;1759674;80;21804;-76
2022/03/12 04:08:02;;;;;;;17.75;6.65;;;;;;;-11.16;70.56;101189.95;1758885;80;21734;-77
2022/03/12 04:11:10;;;;;;;11.75;6.37;;;;;;;-11.18;70.67;101184.70;1760362;81;21161;-82
2022/03/12 04:14:15;;;;;;;16.90;6.65;;;;;;;-11.18;70.75;101192.63;1760522;81;21185;-81
2022/03/12 04:17:21;;;;;;;13.50;6.83;;;;;;;-11.21;70.84;101182.09;1760459;81;21200;-82
2022/03/12 04:20:27;;;;;;;11.33;5.80;;;;;;;-11.27;70.92;101183.94;1760481;81;21160;-76
2022/03/12 04:23:32;;;;;;;12.15;7.17;;;;;;;-11.31;71.07;101188.38;1759094;80;21209;-76
2022/03/12 04:26:40;;;;;;;17.77;6.83;;;;;;;-11.33;71.22;101192.81;1760477;81;21189;-82
2022/03/12 04:29:45;;;;;;;12.95;6.15;;;;;;;-11.35;71.32;101204.70;1760507;81;21200;-82
2022/03/12 04:32:52;;;;;;;20.17;7.47;;;;;;;-11.32;71.47;101195.01;1760423;81;21188;-82
2022/03/12 04:35:56;;;;;;;12.98;6.47;;;;;;;-11.29;71.40;101189.67;1760447;81;21157;-77
2022/03/12 04:39:02;;;;;;;15.10;5.75;;;;;;;-11.23;71.27;101186.98;1760468;81;21196;-76
2022/03/12 04:42:07;;;;;;;11.95;6.42;;;;;;;-11.18;71.27;101195.27;1760450;81;21192;-81
2022/03/12 04:45:14;;;;;;;13.35;6.45;;;;;;;-11.11;71.09;101192.97;1760538;81;22033;-76
2022/03/12 04:48:25;;;;;;;9.30;5.62;;;;;;;-11.02;70.91;101197.72;1760246;81;21189;-76
2022/03/12 04:51:31;;;;;;;10.90;5.75;;;;;;;-10.93;70.80;101197.61;1760553;81;21172;-82
2022/03/12 04:54:41;;;;;;;19.30;7.08;;;;;;;-10.82;70.58;101206.26;1760473;81;21145;-82
2022/03/12 04:57:47;;;;;;;10.08;5.80;;;;;;;-10.73;70.37;101198.66;1760430;81;21219;-82
2022/03/12 05:00:55;;;;;;;14.38;6.40;;;;;;;-10.63;69.87;101204.23;1760485;81;21165;-76
2022/03/12 05:04:02;;;;;;;10.63;6.67;;;;;;;-10.57;69.27;101205.05;1760400;81;21188;-82
2022/03/12 05:07:13;;;;;;;13.20;5.83;;;;;;;-10.50;69.12;101204.50;1761877;80;21184;-82
2022/03/12 05:10:26;;;;;;;9.73;5.62;;;;;;;-10.41;68.88;101204.82;1750842;81;21687;-76
2022/03/12 05:13:31;;;;;;;12.33;5.65;;;;;;;-10.28;68.78;101199.78;1766190;81;21573;-77
2022/03/12 05:16:36;;;;;;;15.18;5.78;;;;;;;-10.16;68.61;101211.48;1766201;81;21224;-82
2022/03/12 05:19:42;;;;;;;13.80;7.15;;;;;;;-10.01;68.14;101202.86;1766030;81;21212;-76
2022/03/12 05:22:49;;;;;;;15.88;6.30;;;;;;;-9.86;67.98;101215.84;1766088;81;21176;-76
2022/03/12 05:25:57;;;;;;;13.53;6.28;;;;;;;-9.73;67.11;101220.03;1766123;81;21705;-82
2022/03/12 05:28:55;;;;;;;14.40;6.50;;;;;;;-9.66;66.62;101223.44;1766145;81;21165;-76
2022/03/12 05:31:51;;;;;;;15.25;6.87;;;;;;;-9.57;66.70;101220.17;1766129;81;21200;-76
2022/03/12 05:34:57;;;;;;;17.07;6.78;;;;;;;-9.48;66.62;101216.94;1766025;81;21185;-76
2022/03/12 05:38:02;;;;;;;13.55;6.42;;;;;;;-9.37;66.39;101214.50;1766118;81;21235;-80
2022/03/12 05:41:00;;;;;;;11.38;5.90;;;;;;;-9.28;65.87;101220.95;1766068;81;21168;-82
2022/03/12 05:44:07;;;;;;;12.88;6.55;;;;;;;-9.23;65.51;101212.92;1766259;81;21165;-82
2022/03/12 05:47:13;;;;;;;14.45;6.80;;;;;;;-9.18;65.11;101215.48;1766075;81;21212;-76
2022/03/12 05:50:19;;;;;;;17.25;6.90;;;;;;;-9.09;64.94;101225.45;1766137;81;21184;-82
2022/03/12 05:53:24;;;;;;;15.00;7.30;;;;;;;-9.00;65.21;101215.12;1766194;81;21204;-82
2022/03/12 05:56:29;;;;;;;14.23;6.83;;;;;;;-8.89;65.18;101222.42;1766212;81;21192;-82
2022/03/12 05:59:35;;;;;;;14.13;5.33;;;;;;;-8.74;64.67;101225.66;1769469;81;21145;-82
2022/03/12 06:02:43;;;;;;;16.00;6.85;;;;;;;-8.65;64.69;101221.03;1735845;82;21247;-82
2022/03/12 06:05:56;;;;;;;19.65;8.83;;;;;;;-8.59;64.85;101224.88;1769202;81;21184;-76
2022/03/12 06:08:58;;;;;;;9.15;5.30;;;;;;;-8.48;64.78;101222.43;1721072;82;21765;-76
2022/03/12 06:12:05;;;;;;;14.63;6.72;;;;;;;-8.36;64.78;101216.86;1758476;81;21711;-82
2022/03/12 06:15:11;;;;;;;12.28;6.35;;;;;;;-8.28;64.76;101221.48;1758461;81;21157;-76
2022/03/12 06:18:17;;;;;;;14.10;6.17;;;;;;;-8.17;64.12;101223.45;1758483;81;21801;-81
2022/03/12 06:21:23;;;;;;;13.25;6.33;;;;;;;-8.07;64.29;101222.33;1758318;81;21145;-82
2022/03/12 06:24:28;;;;;;;11.28;6.22;;;;;;;-7.99;63.53;101218.17;1758494;81;21204;-83
2022/03/12 06:27:34;;;;;;;13.20;6.37;;;;;;;-7.88;63.35;101215.25;1758482;81;21778;-76
2022/03/12 06:30:41;;;;;;;13.32;6.85;;;;;;;-7.76;63.00;101226.91;1758408;81;21153;-76
2022/03/12 06:33:49;;;;;;;14.80;6.67;;;;;;;-7.70;62.78;101222.76;1758516;81;21185;-76
2022/03/12 06:36:54;;;;;;;12.35;6.12;;;;;;;-7.58;61.73;101233.05;1758376;81;21165;-83
2022/03/12 06:40:00;;;;;;;10.10;5.62;;;;;;;-7.55;61.48;101232.12;1758505;81;21168;-76
2022/03/12 06:43:08;;;;;;;13.22;6.20;;;;;;;-7.51;61.75;101235.98;1758348;81;21761;-77
2022/03/12 06:46:16;;;;;;;14.87;6.47;;;;;;;-7.37;62.02;101233.44;1758447;81;21141;-83
2022/03/12 06:49:21;;;;;;;16.25;5.97;;;;;;;-7.30;61.76;101232.34;1758391;81;21233;-82
2022/03/12 06:52:28;;;;;;;12.65;6.53;;;;;;;-7.24;61.77;101238.39;1758387;81;21204;-77
2022/03/12 06:55:33;;;;;;;11.18;6.87;;;;;;;-7.13;61.83;101224.80;1758401;81;21157;-83
2022/03/12 06:58:39;;;;;;;10.65;5.67;;;;;;;-7.06;60.94;101233.00;1758350;81;21196;-83
2022/03/12 07:01:45;;;;;;;13.65;6.40;;;;;;;-7.01;59.63;101232.44;1758218;81;21169;-83
2022/03/12 07:04:52;;;;;;;17.50;5.22;;;;;;;-6.98;59.48;101229.67;1758370;81;21193;-83
2022/03/12 07:07:58;;;;;;;14.45;5.80;;;;;;;-6.93;59.65;101224.23;1758352;81;21221;-83
2022/03/12 07:11:05;;;;;;;12.15;6.08;;;;;;;-6.83;60.20;101234.15;1792721;80;21180;-77
2022/03/12 07:14:13;;;;;;;13.48;6.53;;;;;;;-6.71;60.08;101236.01;1795973;80;21133;-83
2022/03/12 07:17:19;;;;;;;15.60;6.67;;;;;;;-6.59;60.33;101213.93;1794402;79;21738;-77
2022/03/12 07:20:23;;;;;;;14.58;6.80;;;;;;;-6.38;59.29;101209.77;1795936;80;21200;-84
2022/03/12 07:23:29;;;;;;;17.35;6.03;;;;;;;-6.25;57.44;101209.80;1769761;79;21176;-76
2022/03/12 07:26:33;;;;;;;13.05;6.25;;;;;;;-6.19;56.32;101218.92;1765557;81;21235;-85
2022/03/12 07:29:40;;;;;;;19.25;7.00;;;;;;;-6.16;56.39;101222.84;1765514;81;21237;-84
2022/03/12 07:32:46;;;;;;;11.93;5.85;;;;;;;-6.09;57.31;101216.37;1750943;81;21220;-85
2022/03/12 07:35:52;;;;;;;10.63;5.75;;;;;;;-5.98;55.57;101219.55;1765766;81;21232;-85
2022/03/12 07:39:03;;;;;;;8.53;4.83;;;;;;;-5.89;53.76;101215.69;1766021;81;21756;-76
2022/03/12 07:42:05;;;;;;;20.43;10.58;;;;;;;-5.85;53.30;101221.34;1766179;81;21200;-85
2022/03/12 07:45:11;;;;;;;18.25;9.08;;;;;;;-5.81;53.95;101222.12;1766230;81;21729;-77
2022/03/12 07:48:17;;;;;;;9.10;4.75;;;;;;;-5.68;51.99;101230.13;1766218;81;21227;-76
2022/03/12 07:51:24;;;;;;;6.97;4.65;;;;;;;-5.63;50.99;101221.51;1765321;81;21187;-76
2022/03/12 07:54:30;;;;;;;14.70;5.97;;;;;;;-5.59;51.32;101224.48;1766171;81;21144;-76
2022/03/12 07:57:36;;;;;;;15.35;6.40;;;;;;;-5.53;51.48;101207.41;1765959;81;21781;-85
2022/03/12 08:00:41;;;;;;;11.90;4.90;;;;;;;-5.41;51.98;101223.86;1766160;81;21157;-76
2022/03/12 08:03:48;;;;;;;10.98;4.75;;;;;;;-5.30;50.39;101214.62;1765647;81;21164;-77
2022/03/12 08:07:00;;;;;;;7.33;4.72;;;;;;;-5.26;50.75;101217.59;1766161;81;21144;-86
2022/03/12 08:10:04;;;;;;;19.42;8.05;;;;;;;-5.26;49.79;101208.25;1766047;80;21240;-77
2022/03/12 08:13:10;;;;;;;11.80;6.47;;;;;;;-5.24;50.06;101212.59;1760379;81;21199;-84
2022/03/12 08:16:15;;;;;;;10.20;4.20;;;;;;;-5.14;50.17;101208.66;1760672;81;21161;-85
2022/03/12 08:19:22;;;;;;;11.15;5.28;;;;;;;-5.10;49.49;101217.44;1760517;81;21682;-84
2022/03/12 08:22:21;;;;;;;7.72;4.17;;;;;;;-5.12;50.15;101213.97;1759623;80;21710;-84
2022/03/12 08:25:15;;;;;;;7.55;4.53;;;;;;;-5.10;48.71;101202.77;1760356;81;21177;-76
2022/03/12 08:28:20;;;;;;;10.50;4.40;;;;;;;-5.12;49.75;101211.30;1759010;81;21189;-76
2022/03/12 08:31:26;;;;;;;13.93;3.90;;;;;;;-5.12;49.63;101201.96;1758793;81;21176;-76
2022/03/12 08:34:31;;;;;;;9.30;4.72;;;;;;;-5.07;50.52;101206.66;1760261;81;21200;-76
2022/03/12 08:37:39;;;;;;;9.55;4.35;;;;;;;-5.05;49.83;101196.80;1759413;81;21694;-76
2022/03/12 08:40:46;;;;;;;8.38;4.15;;;;;;;-4.94;49.42;101193.30;1758422;81;21231;-83
2022/03/12 08:43:52;;;;;;;14.87;4.47;;;;;;;-4.91;49.57;101195.83;1759058;81;21168;-83
2022/03/12 08:46:58;;;;;;;9.50;5.25;;;;;;;-4.89;49.87;101188.66;1758886;81;21196;-83
2022/03/12 08:49:57;;;;;;;11.68;5.80;;;;;;;-4.84;49.08;101192.95;1760288;81;21188;-76
2022/03/12 08:53:02;;;;;;;9.58;4.03;;;;;;;-4.69;49.62;101181.69;1759844;81;21224;-84
2022/03/12 08:56:09;;;;;;;8.43;3.33;;;;;;;-4.54;49.54;101178.89;1760190;81;21141;-83
2022/03/12 08:59:14;;;;;;;15.55;5.37;;;;;;;-4.48;48.57;101182.19;1760105;81;21216;-76
2022/03/12 09:02:21;;;;;;;6.80;3.70;;;;;;;-4.50;46.42;101174.71;1758887;81;21216;-84
2022/03/12 09:05:26;;;;;;;11.70;5.28;;;;;;;-4.48;46.73;101183.52;1728739;83;21705;-83
2022/03/12 09:08:31;;;;;;;7.40;3.90;;;;;;;-4.47;47.36;101184.39;1740906;82;21248;-84
2022/03/12 09:11:37;;;;;;;8.83;4.92;;;;;;;-4.38;47.53;101180.02;1739812;81;21185;-83
2022/03/12 09:14:44;;;;;;;45.75;18.65;;;;;;;-4.29;46.95;101174.79;1736743;81;21154;-76
2022/03/12 09:17:49;;;;;;;12.90;5.60;;;;;;;-4.28;46.04;101169.41;1732653;81;21264;-83
2022/03/12 09:20:57;;;;;;;19.32;8.95;;;;;;;-4.23;45.64;101169.23;1759913;81;21177;-76
2022/03/12 09:24:03;;;;;;;4.70;2.85;;;;;;;-4.18;46.04;101172.58;1759998;81;21185;-76
2022/03/12 09:27:08;;;;;;;21.20;10.32;;;;;;;-4.14;45.51;101173.73;1759960;81;21762;-83
2022/03/12 09:30:15;;;;;;;25.43;10.95;;;;;;;-4.16;46.03;101173.38;1760043;81;21470;-83
2022/03/12 09:33:21;;;;;;;10.45;3.62;;;;;;;-4.12;46.71;101162.50;1767347;80;21192;-76
2022/03/12 09:36:28;;;;;;;9.68;5.10;;;;;;;-4.09;47.03;101162.86;1791454;80;21192;-77
2022/03/12 09:39:34;;;;;;;12.78;3.42;;;;;;;-4.04;46.43;101151.98;1791397;80;21188;-83
2022/03/12 09:42:32;;;;;;;4.87;2.90;;;;;;;-4.01;47.14;101151.83;1758385;81;21176;-77
2022/03/12 09:45:24;;;;;;;8.75;4.35;;;;;;;-4.04;47.24;101150.64;1758889;81;21177;-76
2022/03/12 09:48:10;;;;;;;8.95;5.28;;;;;;;-4.04;47.82;101138.15;1758924;80;21202;-76
2022/03/12 09:51:02;;;;;;;7.53;4.33;;;;;;;-3.95;47.51;101140.44;1757039;81;21143;-83
2022/03/12 09:53:48;;;;;;;5.97;3.30;;;;;;;-3.82;47.84;101145.25;1757019;81;21203;-76
2022/03/12 09:56:54;;;;;;;7.53;3.35;;;;;;;-3.77;47.44;101142.78;1757293;81;21186;-82
2022/03/12 10:00:00;;;;;;;6.40;3.27;;;;;;;-3.77;47.54;101136.09;1756845;81;21167;-83
2022/03/12 10:03:05;;;;;;;5.58;2.80;;;;;;;-3.72;48.50;101139.91;1761819;80;21219;-82
2022/03/12 10:06:10;;;;;;;4.08;2.70;;;;;;;-3.65;48.84;101154.78;1795124;80;21199;-77
2022/03/12 10:09:10;;;;;;;;;;;;;;;-3.71;47.84;101133.19;1797840;80;21765;-82
2022/03/12 10:12:19;;;;;;;7.70;2.98;;;;;;;-3.70;48.95;101127.37;1793652;80;20225;-76
2022/03/12 10:15:26;;;;;;;12.30;2.67;;;;;;;-3.66;49.58;101128.51;1792695;80;21785;-76
2022/03/12 10:18:36;;;;;;;7.28;2.87;;;;;;;-3.62;50.28;101122.09;1791150;79;21164;-82
2022/03/12 10:21:45;;;;;;;5.78;3.00;;;;;;;-3.61;51.29;101116.27;1793424;80;21742;-82
2022/03/12 10:24:52;;;;;;;4.50;2.60;;;;;;;-3.63;51.20;101132.36;1793648;80;21737;-82
2022/03/12 10:27:59;;;;;;;7.35;3.20;;;;;;;-3.61;51.21;101121.16;1793537;80;21223;-76
2022/03/12 10:31:05;;;;;;;5.42;2.92;;;;;;;-3.57;51.36;101115.69;1793375;80;21150;-82
2022/03/12 10:34:28;;;;;;;4.37;2.83;;;;;;;-3.49;52.66;101118.87;1793467;80;21153;-82
2022/03/12 10:37:35;;;;;;;5.80;3.47;;;;;;;-3.47;51.95;101113.87;1793525;80;21243;-77
2022/03/12 10:40:41;;;;;;;4.22;2.92;;;;;;;-3.40;50.42;101107.30;1793129;80;21765;-82
2022/03/12 10:43:59;;;;;;;9.43;3.02;;;;;;;-3.35;50.97;101114.64;1769685;80;21148;-76
2022/03/12 10:47:05;;;;;;;4.03;2.80;;;;;;;-3.32;52.48;101106.96;1793478;80;21668;-76
2022/03/12 10:50:17;;;;;;;7.83;4.20;;;;;;;-3.28;50.24;101102.35;1793563;80;21132;-76
2022/03/12 10:53:22;;;;;;;12.98;5.33;;;;;;;-3.25;50.72;101103.05;1793386;80;21192;-81
2022/03/12 10:56:28;;;;;;;6.83;3.47;;;;;;;-3.16;50.40;101097.77;1793319;80;21239;-76
2022/03/12 10:59:34;;;;;;;5.25;3.27;;;;;;;-3.04;51.90;101095.88;1793288;80;21156;-82
2022/03/12 11:02:39;;;;;;;5.00;2.95;;;;;;;-3.02;51.05;101083.75;1792328;80;21200;-76
2022/03/12 11:05:47;;;;;;;5.53;3.30;;;;;;;-3.07;50.44;101086.64;1793259;80;21164;-83
2022/03/12 11:08:54;;;;;;;4.05;2.45;;;;;;;-3.04;51.61;101088.31;1791893;79;21682;-82
2022/03/12 11:12:00;;;;;;;3.77;2.72;;;;;;;-3.04;51.24;101086.51;1793396;80;21192;-83
2022/03/12 11:15:20;;;;;;;3.75;2.67;;;;;;;-3.05;52.84;101082.09;1795682;80;21500;-76
2022/03/12 11:18:26;;;;;;;3.80;2.85;;;;;;;-2.98;51.80;101080.00;1797568;80;21737;-82
2022/03/12 11:21:42;;;;;;;4.60;2.67;;;;;;;-2.90;52.34;101081.85;1797751;80;21191;-76
2022/03/12 11:24:59;;;;;;;4.83;2.67;;;;;;;-2.85;52.86;101069.98;1797593;80;21765;-82
2022/03/12 11:28:08;;;;;;;5.97;2.92;;;;;;;-2.78;51.38;101061.17;1797563;80;21195;-76
2022/03/12 11:31:13;;;;;;;3.40;2.58;;;;;;;-2.78;49.57;101052.27;1794110;80;21187;-83
2022/03/12 11:34:32;;;;;;;4.75;2.35;;;;;;;-2.80;51.11;101055.51;1797713;80;21188;-76
2022/03/12 11:37:37;;;;;;;14.98;2.55;;;;;;;-2.84;49.67;101065.48;1797612;80;21176;-76
2022/03/12 11:40:49;;;;;;;3.65;2.58;;;;;;;-2.83;50.54;101061.39;1797585;80;21192;-83
2022/03/12 11:43:56;;;;;;;4.58;2.47;;;;;;;-2.74;48.76;101052.53;1797672;80;21157;-76
2022/03/12 11:47:02;;;;;;;4.87;2.62;;;;;;;-2.78;49.65;101059.83;1797558;80;21223;-83
2022/03/12 11:50:10;;;;;;;8.68;2.37;;;;;;;-2.81;48.58;101057.80;1797611;80;21153;-76
2022/03/12 11:53:15;;;;;;;4.47;2.33;;;;;;;-2.81;48.92;101057.32;1797572;80;21238;-76
2022/03/12 11:56:27;;;;;;;8.43;2.58;;;;;;;-2.72;48.62;101066.73;1796686;80;21168;-76
2022/03/12 11:59:31;;;;;;;3.55;2.27;;;;;;;-2.67;48.09;101065.56;1797155;80;21180;-76
2022/03/12 12:02:42;;;;;;;4.33;2.55;;;;;;;-2.63;47.36;101062.27;1795310;80;21183;-75
2022/03/12 12:05:48;;;;;;;4.20;2.62;;;;;;;-2.64;47.27;101059.17;1797604;80;21156;-81
2022/03/12 12:08:57;;;;;;;6.47;2.70;;;;;;;-2.64;48.57;101064.53;1797586;80;21195;-76
2022/03/12 12:12:03;;;;;;;3.05;2.40;;;;;;;-2.64;48.04;101065.87;1797412;80;21738;-77
2022/03/12 12:15:15;;;;;;;4.60;1.87;;;;;;;-2.66;45.99;101059.26;1796105;79;21176;-75
2022/03/12 12:18:21;;;;;;;4.33;2.17;;;;;;;-2.67;47.28;101062.89;1797549;80;21487;-81
2022/03/12 12:21:28;;;;;;;4.12;2.35;;;;;;;-2.64;47.38;101057.36;1795882;78;21199;-81
2022/03/12 12:24:45;;;;;;;3.62;2.17;;;;;;;-2.62;47.11;101060.84;1797015;80;21191;-75
2022/03/12 12:27:53;;;;;;;3.60;2.05;;;;;;;-2.59;46.83;101058.03;1796863;80;21188;-75
2022/03/12 12:31:00;;;;;;;3.05;2.20;;;;;;;-2.57;46.67;101063.30;1796872;80;21160;-81
2022/03/12 12:34:01;;;;;;;3.20;2.20;;;;;;;-2.56;45.20;101065.03;1797351;80;21721;-81
2022/03/12 12:37:08;;;;;;;8.40;2.20;;;;;;;-2.58;44.83;101061.10;1797666;80;21949;-76
2022/03/12 12:40:31;;;;;;;4.05;2.62;;;;;;;-2.57;45.53;101058.81;1797548;80;21697;-75
2022/03/12 12:43:48;;;;;;;3.33;2.10;;;;;;;-2.57;45.13;101061.97;1785538;80;21542;-81
2022/03/12 12:46:54;;;;;;;5.97;3.75;;;;;;;-2.58;45.33;101061.58;1733977;82;21752;-75
2022/03/12 12:50:02;;;;;;;2.67;1.92;;;;;;;-2.55;44.47;101048.02;1719922;82;21176;-75
2022/03/12 12:53:19;;;;;;;2.37;1.75;;;;;;;-2.47;44.17;101053.01;1733281;82;21211;-82
2022/03/12 12:56:41;;;;;;;18.00;7.12;;;;;;;-2.44;44.63;101057.75;1734314;82;21160;-81
2022/03/12 12:59:49;;;;;;;21.82;7.95;;;;;;;-2.46;42.55;101047.56;1734021;81;21187;-76
2022/03/12 13:02:54;;;;;;;5.10;2.17;;;;;;;-2.48;42.30;101059.31;1734415;82;21222;-82
2022/03/12 13:06:03;;;;;;;3.75;1.55;;;;;;;-2.49;42.92;101057.11;1734539;82;21752;-80
2022/03/12 13:09:11;;;;;;;2.12;1.82;;;;;;;-2.47;43.05;101056.55;1734769;82;21178;-76
2022/03/12 13:12:16;;;;;;;2.50;1.60;;;;;;;-2.49;42.94;101045.50;1734629;82;21171;-81
2022/03/12 13:15:16;;;;;;;2.62;1.90;;;;;;;-2.50;42.97;101051.33;1734484;81;21242;-75
2022/03/12 13:18:30;;;;;;;3.30;1.92;;;;;;;-2.47;43.04;101053.87;1729407;83;21788;-81
2022/03/12 13:21:39;;;;;;;2.80;2.12;;;;;;;-2.45;42.18;101049.30;1729526;83;21210;-81
2022/03/12 13:25:00;;;;;;;2.70;1.70;;;;;;;-2.49;42.25;101051.75;1729276;83;21218;-82
2022/03/12 13:28:08;;;;;;;2.85;2.02;;;;;;;-2.48;41.57;101041.43;1729352;83;21302;-75
2022/03/12 13:31:38;;;;;;;2.92;1.95;;;;;;;-2.50;41.48;101043.30;1729551;83;21175;-82
2022/03/12 13:34:44;;;;;;;3.17;1.73;;;;;;;-2.52;41.38;101039.84;1729824;83;21207;-81
2022/03/12 13:37:50;;;;;;;3.67;1.90;;;;;;;-2.51;42.20;101035.34;1729574;83;21218;-75
2022/03/12 13:40:56;;;;;;;2.30;1.85;;;;;;;-2.50;41.33;101037.94;1730282;83;21163;-81
2022/03/12 13:44:03;;;;;;;3.40;1.90;;;;;;;-2.51;40.77;101038.89;1730140;83;21167;-81
2022/03/12 13:47:08;;;;;;;3.55;1.98;;;;;;;-2.54;42.21;101033.70;1730160;83;21214;-81
2022/03/12 13:50:16;;;;;;;2.52;2.00;;;;;;;-2.53;41.79;101027.39;1730143;83;21202;-82
2022/03/12 13:53:23;;;;;;;4.70;2.45;;;;;;;-2.53;41.81;101030.55;1705896;82;21246;-75
2022/03/12 13:56:30;;;;;;;3.35;2.42;;;;;;;-2.55;41.33;101017.69;1730006;83;21728;-82
2022/03/12 13:59:35;;;;;;;3.58;2.00;;;;;;;-2.58;41.81;101014.70;1730169;83;21764;-76
2022/03/12 14:02:40;;;;;;;4.42;2.17;;;;;;;-2.55;42.09;101011.85;1730130;83;21251;-76
2022/03/12 14:05:45;;;;;;;3.95;2.00;;;;;;;-2.55;42.11;101021.23;1730132;83;21507;-75
2022/03/12 14:08:53;;;;;;;4.20;2.60;;;;;;;-2.55;40.57;101015.88;1730102;83;21732;-76
2022/03/12 14:11:56;;;;;;;3.83;2.12;;;;;;;-2.58;39.59;101018.72;1728694;82;21214;-82
2022/03/12 14:14:50;;;;;;;4.60;2.70;;;;;;;-2.60;40.73;101013.41;1730230;83;21227;-75
2022/03/12 14:17:44;;;;;;;5.05;2.50;;;;;;;-2.61;41.49;101013.03;1702708;83;21179;-82
2022/03/12 14:20:51;;;;;;;4.05;2.65;;;;;;;-2.63;41.58;101004.22;1730144;83;21760;-82